Terminal Aerodrome Forecast
Issued by NWS Paducah, KY

Home | Current Version | Previous Version | Text Only | Print | Product List | Glossary On
Versions: 1 2 3 4 5 6 7 8 9 10 11 12 13 14 15 16 17 18 19
000
FTUS43 KPAH 211700
TAFPAH
TAF
KPAH 211731Z 2118/2218 VRB04KT P6SM FEW250
     FM220300 14006KT P6SM SCT070 BKN150
     FM220800 14007KT 4SM BR BKN015 PROB30 2208/2214 2SM -RA BR
      OVC007
     FM221400 15008KT 3SM -RA BR OVC008=

USA.gov is the U.S. government's official web portal to all federal, state and local government web resources and services.